Arnopolis, Brazil
Current Conditions -  °F | °C
As of 4:00 AM on Thursday 27 Nov 2014 (Local Time) from SBFL Reporting Station
Scattered Clouds Scattered Clouds  
Wind Chill: 72°   Ceiling: Unl
Heat Index: 72°   Visibility: 6mi
Dew Point: 64°   Wind: 10mph
Humidity: 78%   Direction: 190°S
Pressure: 29.85"   Gusts: NA
Location:  27.61°S, 49.44°W
Report Text: SBFL 270600Z 19009KT 9999 SCT020 22/18 Q1011
Loading
Personal Weather Stations






























Interactive Weather Map New forecast layout! Learn more

10-Day Weather Forecast

Advertisements
Track Severe Weather on mobile